sensor_id;sensor_type;location;lat;lon;timestamp;P1;durP1;ratioP1;P2;durP2;ratioP2
73132;SDS011;61320;52.008;4.530;2023-06-22T00:00:51;26.34;;;25.77;;
73132;SDS011;61320;52.008;4.530;2023-06-22T00:03:18;26.40;;;25.99;;
73132;SDS011;61320;52.008;4.530;2023-06-22T00:05:48;26.18;;;25.94;;
73132;SDS011;61320;52.008;4.530;2023-06-22T00:08:14;26.98;;;26.80;;
73132;SDS011;61320;52.008;4.530;2023-06-22T00:10:41;27.21;;;26.72;;
73132;SDS011;61320;52.008;4.530;2023-06-22T00:13:07;27.04;;;26.72;;
73132;SDS011;61320;52.008;4.530;2023-06-22T00:15:34;26.71;;;26.32;;
73132;SDS011;61320;52.008;4.530;2023-06-22T00:18:01;28.72;;;28.15;;
73132;SDS011;61320;52.008;4.530;2023-06-22T00:20:27;28.44;;;28.01;;
73132;SDS011;61320;52.008;4.530;2023-06-22T00:22:57;27.80;;;27.27;;
73132;SDS011;61320;52.008;4.530;2023-06-22T00:25:24;28.55;;;28.09;;
73132;SDS011;61320;52.008;4.530;2023-06-22T00:27:50;28.85;;;28.44;;
73132;SDS011;61320;52.008;4.530;2023-06-22T00:30:16;28.79;;;28.29;;
73132;SDS011;61320;52.008;4.530;2023-06-22T00:32:42;28.02;;;27.53;;
73132;SDS011;61320;52.008;4.530;2023-06-22T00:35:09;29.22;;;28.92;;
73132;SDS011;61320;52.008;4.530;2023-06-22T00:37:36;30.47;;;29.79;;
73132;SDS011;61320;52.008;4.530;2023-06-22T00:40:05;29.54;;;29.32;;
73132;SDS011;61320;52.008;4.530;2023-06-22T00:42:33;29.65;;;29.21;;
73132;SDS011;61320;52.008;4.530;2023-06-22T00:44:59;29.20;;;28.76;;
73132;SDS011;61320;52.008;4.530;2023-06-22T00:47:24;29.85;;;29.23;;
73132;SDS011;61320;52.008;4.530;2023-06-22T00:49:50;29.31;;;28.60;;
73132;SDS011;61320;52.008;4.530;2023-06-22T00:52:16;28.83;;;28.16;;
73132;SDS011;61320;52.008;4.530;2023-06-22T00:54:49;29.32;;;28.69;;
73132;SDS011;61320;52.008;4.530;2023-06-22T00:57:16;28.28;;;27.97;;
73132;SDS011;61320;52.008;4.530;2023-06-22T00:59:46;27.78;;;27.46;;
73132;SDS011;61320;52.008;4.530;2023-06-22T01:02:13;28.55;;;28.10;;
73132;SDS011;61320;52.008;4.530;2023-06-22T01:04:39;28.35;;;27.79;;
73132;SDS011;61320;52.008;4.530;2023-06-22T01:12:38;27.94;;;27.55;;
73132;SDS011;61320;52.008;4.530;2023-06-22T01:15:33;28.64;;;28.31;;
73132;SDS011;61320;52.008;4.530;2023-06-22T01:18:05;28.09;;;27.86;;
73132;SDS011;61320;52.008;4.530;2023-06-22T01:20:34;30.78;;;30.04;;
73132;SDS011;61320;52.008;4.530;2023-06-22T01:26:06;30.83;;;30.47;;
73132;SDS011;61320;52.008;4.530;2023-06-22T01:28:55;31.32;;;30.77;;
73132;SDS011;61320;52.008;4.530;2023-06-22T01:31:25;32.07;;;31.70;;
73132;SDS011;61320;52.008;4.530;2023-06-22T01:34:03;32.48;;;31.92;;
73132;SDS011;61320;52.008;4.530;2023-06-22T01:36:31;33.02;;;32.22;;
73132;SDS011;61320;52.008;4.530;2023-06-22T01:38:58;33.06;;;32.37;;
73132;SDS011;61320;52.008;4.530;2023-06-22T01:41:25;32.36;;;32.05;;
73132;SDS011;61320;52.008;4.530;2023-06-22T01:43:52;31.84;;;31.23;;
73132;SDS011;61320;52.008;4.530;2023-06-22T01:46:20;31.41;;;31.06;;
73132;SDS011;61320;52.008;4.530;2023-06-22T01:48:47;32.06;;;31.48;;
73132;SDS011;61320;52.008;4.530;2023-06-22T01:51:13;31.28;;;30.82;;
73132;SDS011;61320;52.008;4.530;2023-06-22T01:53:39;32.29;;;31.88;;
73132;SDS011;61320;52.008;4.530;2023-06-22T01:56:05;32.43;;;31.88;;
73132;SDS011;61320;52.008;4.530;2023-06-22T01:58:31;33.15;;;32.67;;
73132;SDS011;61320;52.008;4.530;2023-06-22T02:01:00;32.71;;;32.26;;
73132;SDS011;61320;52.008;4.530;2023-06-22T02:03:41;33.75;;;33.26;;
73132;SDS011;61320;52.008;4.530;2023-06-22T02:06:25;34.12;;;33.80;;
73132;SDS011;61320;52.008;4.530;2023-06-22T02:09:01;34.76;;;34.10;;
73132;SDS011;61320;52.008;4.530;2023-06-22T02:11:30;34.59;;;33.74;;
73132;SDS011;61320;52.008;4.530;2023-06-22T02:13:58;35.71;;;35.09;;
73132;SDS011;61320;52.008;4.530;2023-06-22T02:16:25;36.21;;;35.37;;
73132;SDS011;61320;52.008;4.530;2023-06-22T02:18:55;35.04;;;34.79;;
73132;SDS011;61320;52.008;4.530;2023-06-22T02:21:22;34.54;;;34.00;;
73132;SDS011;61320;52.008;4.530;2023-06-22T02:23:47;35.70;;;34.99;;
73132;SDS011;61320;52.008;4.530;2023-06-22T02:26:13;36.38;;;35.42;;
73132;SDS011;61320;52.008;4.530;2023-06-22T02:28:41;35.94;;;35.07;;
73132;SDS011;61320;52.008;4.530;2023-06-22T02:31:06;35.66;;;35.15;;
73132;SDS011;61320;52.008;4.530;2023-06-22T02:33:32;36.22;;;35.43;;
73132;SDS011;61320;52.008;4.530;2023-06-22T02:35:57;36.88;;;36.15;;
73132;SDS011;61320;52.008;4.530;2023-06-22T02:38:23;36.23;;;35.50;;
73132;SDS011;61320;52.008;4.530;2023-06-22T02:40:49;37.19;;;36.32;;
73132;SDS011;61320;52.008;4.530;2023-06-22T02:43:15;37.07;;;36.32;;
73132;SDS011;61320;52.008;4.530;2023-06-22T02:45:40;37.02;;;36.16;;
73132;SDS011;61320;52.008;4.530;2023-06-22T02:48:06;38.43;;;37.58;;
73132;SDS011;61320;52.008;4.530;2023-06-22T02:50:32;37.85;;;37.32;;
73132;SDS011;61320;52.008;4.530;2023-06-22T02:52:57;38.22;;;37.24;;
73132;SDS011;61320;52.008;4.530;2023-06-22T02:55:23;37.15;;;36.83;;
73132;SDS011;61320;52.008;4.530;2023-06-22T02:57:49;36.73;;;36.20;;
73132;SDS011;61320;52.008;4.530;2023-06-22T03:00:18;37.48;;;36.89;;
73132;SDS011;61320;52.008;4.530;2023-06-22T03:02:47;37.40;;;36.70;;
73132;SDS011;61320;52.008;4.530;2023-06-22T03:05:14;37.34;;;36.62;;
73132;SDS011;61320;52.008;4.530;2023-06-22T03:07:40;36.82;;;36.48;;
73132;SDS011;61320;52.008;4.530;2023-06-22T03:10:07;37.09;;;36.71;;
73132;SDS011;61320;52.008;4.530;2023-06-22T03:12:39;37.52;;;36.71;;
73132;SDS011;61320;52.008;4.530;2023-06-22T03:15:06;37.74;;;36.83;;
73132;SDS011;61320;52.008;4.530;2023-06-22T03:17:34;37.47;;;36.84;;
73132;SDS011;61320;52.008;4.530;2023-06-22T03:20:00;37.19;;;36.42;;
73132;SDS011;61320;52.008;4.530;2023-06-22T03:22:26;36.49;;;36.04;;
73132;SDS011;61320;52.008;4.530;2023-06-22T03:24:52;37.63;;;37.13;;
73132;SDS011;61320;52.008;4.530;2023-06-22T03:27:18;37.34;;;36.87;;
73132;SDS011;61320;52.008;4.530;2023-06-22T03:29:43;36.90;;;36.24;;
73132;SDS011;61320;52.008;4.530;2023-06-22T03:32:10;38.22;;;37.73;;
73132;SDS011;61320;52.008;4.530;2023-06-22T03:34:35;36.46;;;36.22;;
73132;SDS011;61320;52.008;4.530;2023-06-22T03:37:01;36.37;;;36.09;;
73132;SDS011;61320;52.008;4.530;2023-06-22T03:39:27;37.33;;;36.78;;
73132;SDS011;61320;52.008;4.530;2023-06-22T03:41:52;36.87;;;36.35;;
73132;SDS011;61320;52.008;4.530;2023-06-22T03:44:18;37.81;;;37.19;;
73132;SDS011;61320;52.008;4.530;2023-06-22T03:46:44;36.36;;;35.97;;
73132;SDS011;61320;52.008;4.530;2023-06-22T03:49:09;36.11;;;35.85;;
73132;SDS011;61320;52.008;4.530;2023-06-22T03:51:35;35.96;;;35.59;;
73132;SDS011;61320;52.008;4.530;2023-06-22T03:54:00;37.77;;;37.20;;
73132;SDS011;61320;52.008;4.530;2023-06-22T03:56:26;37.07;;;36.73;;
73132;SDS011;61320;52.008;4.530;2023-06-22T03:58:51;38.64;;;37.76;;
73132;SDS011;61320;52.008;4.530;2023-06-22T04:01:17;36.17;;;35.97;;
73132;SDS011;61320;52.008;4.530;2023-06-22T04:03:43;36.44;;;36.01;;
73132;SDS011;61320;52.008;4.530;2023-06-22T04:06:08;36.74;;;36.08;;
73132;SDS011;61320;52.008;4.530;2023-06-22T04:08:34;37.81;;;37.27;;
73132;SDS011;61320;52.008;4.530;2023-06-22T04:11:00;37.37;;;36.93;;
73132;SDS011;61320;52.008;4.530;2023-06-22T04:13:25;36.19;;;36.01;;
73132;SDS011;61320;52.008;4.530;2023-06-22T04:15:51;37.06;;;36.73;;
73132;SDS011;61320;52.008;4.530;2023-06-22T04:18:16;36.73;;;36.26;;
73132;SDS011;61320;52.008;4.530;2023-06-22T04:20:42;36.79;;;36.40;;
73132;SDS011;61320;52.008;4.530;2023-06-22T04:23:07;36.13;;;35.67;;
73132;SDS011;61320;52.008;4.530;2023-06-22T04:25:33;36.43;;;36.26;;
73132;SDS011;61320;52.008;4.530;2023-06-22T04:27:59;37.07;;;36.70;;
73132;SDS011;61320;52.008;4.530;2023-06-22T04:30:28;34.22;;;34.16;;
73132;SDS011;61320;52.008;4.530;2023-06-22T04:32:54;35.06;;;34.79;;
73132;SDS011;61320;52.008;4.530;2023-06-22T04:35:23;35.34;;;34.66;;
73132;SDS011;61320;52.008;4.530;2023-06-22T04:37:49;35.41;;;35.05;;
73132;SDS011;61320;52.008;4.530;2023-06-22T04:40:15;34.09;;;33.92;;
73132;SDS011;61320;52.008;4.530;2023-06-22T04:42:41;34.08;;;33.84;;
73132;SDS011;61320;52.008;4.530;2023-06-22T04:45:18;34.30;;;33.88;;
73132;SDS011;61320;52.008;4.530;2023-06-22T04:47:44;33.63;;;33.22;;
73132;SDS011;61320;52.008;4.530;2023-06-22T04:50:12;33.72;;;33.26;;
73132;SDS011;61320;52.008;4.530;2023-06-22T04:52:38;34.12;;;33.68;;
73132;SDS011;61320;52.008;4.530;2023-06-22T04:55:04;32.66;;;32.59;;
73132;SDS011;61320;52.008;4.530;2023-06-22T04:57:30;32.63;;;32.47;;
73132;SDS011;61320;52.008;4.530;2023-06-22T04:59:59;32.83;;;32.61;;
73132;SDS011;61320;52.008;4.530;2023-06-22T05:02:38;32.08;;;31.96;;
73132;SDS011;61320;52.008;4.530;2023-06-22T05:05:04;31.46;;;30.98;;
73132;SDS011;61320;52.008;4.530;2023-06-22T05:07:34;31.91;;;31.67;;
73132;SDS011;61320;52.008;4.530;2023-06-22T05:10:01;31.56;;;30.96;;
73132;SDS011;61320;52.008;4.530;2023-06-22T05:12:29;29.80;;;29.59;;
73132;SDS011;61320;52.008;4.530;2023-06-22T05:14:55;29.50;;;29.37;;
73132;SDS011;61320;52.008;4.530;2023-06-22T05:17:21;30.28;;;30.08;;
73132;SDS011;61320;52.008;4.530;2023-06-22T05:19:47;29.72;;;29.60;;
73132;SDS011;61320;52.008;4.530;2023-06-22T05:22:15;29.32;;;29.15;;
73132;SDS011;61320;52.008;4.530;2023-06-22T05:24:42;28.49;;;28.36;;
73132;SDS011;61320;52.008;4.530;2023-06-22T05:27:08;28.85;;;28.82;;
73132;SDS011;61320;52.008;4.530;2023-06-22T05:29:34;29.22;;;28.99;;
73132;SDS011;61320;52.008;4.530;2023-06-22T05:32:00;29.55;;;29.04;;
73132;SDS011;61320;52.008;4.530;2023-06-22T05:34:26;28.44;;;28.28;;
73132;SDS011;61320;52.008;4.530;2023-06-22T05:36:51;27.78;;;27.75;;
73132;SDS011;61320;52.008;4.530;2023-06-22T05:39:17;28.58;;;28.49;;
73132;SDS011;61320;52.008;4.530;2023-06-22T05:41:42;27.77;;;27.65;;
73132;SDS011;61320;52.008;4.530;2023-06-22T05:44:09;27.49;;;27.25;;
73132;SDS011;61320;52.008;4.530;2023-06-22T05:46:35;27.08;;;26.77;;
73132;SDS011;61320;52.008;4.530;2023-06-22T05:49:01;27.12;;;27.05;;
73132;SDS011;61320;52.008;4.530;2023-06-22T05:51:26;27.22;;;27.17;;
73132;SDS011;61320;52.008;4.530;2023-06-22T05:53:52;26.38;;;26.32;;
73132;SDS011;61320;52.008;4.530;2023-06-22T05:56:18;26.36;;;26.33;;
73132;SDS011;61320;52.008;4.530;2023-06-22T05:58:43;26.10;;;26.10;;
73132;SDS011;61320;52.008;4.530;2023-06-22T06:01:09;25.75;;;25.70;;
73132;SDS011;61320;52.008;4.530;2023-06-22T06:03:35;25.94;;;25.84;;
73132;SDS011;61320;52.008;4.530;2023-06-22T06:06:06;25.67;;;25.67;;
73132;SDS011;61320;52.008;4.530;2023-06-22T06:08:32;26.09;;;25.98;;
73132;SDS011;61320;52.008;4.530;2023-06-22T06:10:58;24.66;;;24.64;;
73132;SDS011;61320;52.008;4.530;2023-06-22T06:13:23;25.34;;;25.28;;
73132;SDS011;61320;52.008;4.530;2023-06-22T06:15:49;24.82;;;24.76;;
73132;SDS011;61320;52.008;4.530;2023-06-22T06:18:16;25.28;;;25.19;;
73132;SDS011;61320;52.008;4.530;2023-06-22T06:20:42;24.87;;;24.87;;
73132;SDS011;61320;52.008;4.530;2023-06-22T06:23:08;24.44;;;24.44;;
73132;SDS011;61320;52.008;4.530;2023-06-22T06:25:33;23.54;;;23.48;;
73132;SDS011;61320;52.008;4.530;2023-06-22T06:27:59;23.57;;;23.54;;
73132;SDS011;61320;52.008;4.530;2023-06-22T06:30:25;23.88;;;23.87;;
73132;SDS011;61320;52.008;4.530;2023-06-22T06:32:50;22.65;;;22.57;;
73132;SDS011;61320;52.008;4.530;2023-06-22T06:35:16;23.10;;;23.09;;
73132;SDS011;61320;52.008;4.530;2023-06-22T06:37:46;22.36;;;22.36;;
73132;SDS011;61320;52.008;4.530;2023-06-22T06:40:14;21.15;;;21.15;;
73132;SDS011;61320;52.008;4.530;2023-06-22T06:42:42;22.20;;;22.20;;
73132;SDS011;61320;52.008;4.530;2023-06-22T06:45:10;21.37;;;21.37;;
73132;SDS011;61320;52.008;4.530;2023-06-22T06:47:42;20.77;;;20.77;;
73132;SDS011;61320;52.008;4.530;2023-06-22T06:50:08;19.78;;;19.78;;
73132;SDS011;61320;52.008;4.530;2023-06-22T06:52:35;19.85;;;19.85;;
73132;SDS011;61320;52.008;4.530;2023-06-22T06:55:01;19.91;;;19.91;;
73132;SDS011;61320;52.008;4.530;2023-06-22T06:57:29;19.28;;;19.28;;
73132;SDS011;61320;52.008;4.530;2023-06-22T06:59:55;18.67;;;18.67;;
73132;SDS011;61320;52.008;4.530;2023-06-22T07:02:23;18.46;;;18.46;;
73132;SDS011;61320;52.008;4.530;2023-06-22T07:04:49;18.53;;;18.53;;
73132;SDS011;61320;52.008;4.530;2023-06-22T07:07:15;18.57;;;18.57;;
73132;SDS011;61320;52.008;4.530;2023-06-22T07:09:40;18.99;;;18.99;;
73132;SDS011;61320;52.008;4.530;2023-06-22T07:12:06;19.19;;;19.15;;
73132;SDS011;61320;52.008;4.530;2023-06-22T07:14:32;18.49;;;18.46;;
73132;SDS011;61320;52.008;4.530;2023-06-22T07:16:58;19.23;;;19.10;;
73132;SDS011;61320;52.008;4.530;2023-06-22T07:19:27;18.03;;;18.03;;
73132;SDS011;61320;52.008;4.530;2023-06-22T07:21:53;17.02;;;17.02;;
73132;SDS011;61320;52.008;4.530;2023-06-22T07:24:22;15.14;;;15.14;;
73132;SDS011;61320;52.008;4.530;2023-06-22T07:26:49;14.51;;;14.51;;
73132;SDS011;61320;52.008;4.530;2023-06-22T07:29:18;14.84;;;14.84;;
73132;SDS011;61320;52.008;4.530;2023-06-22T07:31:47;14.99;;;14.98;;
73132;SDS011;61320;52.008;4.530;2023-06-22T07:34:15;14.49;;;14.49;;
73132;SDS011;61320;52.008;4.530;2023-06-22T07:36:40;12.81;;;12.81;;
73132;SDS011;61320;52.008;4.530;2023-06-22T07:39:06;12.57;;;12.57;;
73132;SDS011;61320;52.008;4.530;2023-06-22T07:41:31;12.15;;;12.15;;
73132;SDS011;61320;52.008;4.530;2023-06-22T07:43:57;10.46;;;10.46;;
73132;SDS011;61320;52.008;4.530;2023-06-22T07:46:22;10.50;;;10.43;;
73132;SDS011;61320;52.008;4.530;2023-06-22T07:48:48;9.72;;;9.72;;
73132;SDS011;61320;52.008;4.530;2023-06-22T07:51:14;8.80;;;8.80;;
73132;SDS011;61320;52.008;4.530;2023-06-22T07:53:43;8.45;;;8.45;;
73132;SDS011;61320;52.008;4.530;2023-06-22T07:56:12;8.37;;;8.37;;
73132;SDS011;61320;52.008;4.530;2023-06-22T07:58:43;8.11;;;8.11;;
73132;SDS011;61320;52.008;4.530;2023-06-22T08:01:16;8.11;;;8.11;;
73132;SDS011;61320;52.008;4.530;2023-06-22T08:03:42;8.28;;;8.28;;
73132;SDS011;61320;52.008;4.530;2023-06-22T08:06:08;8.40;;;8.40;;
73132;SDS011;61320;52.008;4.530;2023-06-22T08:08:34;8.36;;;8.36;;
73132;SDS011;61320;52.008;4.530;2023-06-22T08:11:03;9.08;;;9.08;;
73132;SDS011;61320;52.008;4.530;2023-06-22T08:13:28;8.30;;;8.30;;
73132;SDS011;61320;52.008;4.530;2023-06-22T08:15:54;8.83;;;8.83;;
73132;SDS011;61320;52.008;4.530;2023-06-22T08:18:19;8.30;;;8.30;;
73132;SDS011;61320;52.008;4.530;2023-06-22T08:20:45;8.77;;;8.77;;
73132;SDS011;61320;52.008;4.530;2023-06-22T08:23:11;8.95;;;8.95;;
73132;SDS011;61320;52.008;4.530;2023-06-22T08:25:36;8.48;;;8.48;;
73132;SDS011;61320;52.008;4.530;2023-06-22T08:28:02;8.24;;;8.24;;
73132;SDS011;61320;52.008;4.530;2023-06-22T08:30:29;7.72;;;7.72;;
73132;SDS011;61320;52.008;4.530;2023-06-22T08:32:54;6.26;;;6.23;;
73132;SDS011;61320;52.008;4.530;2023-06-22T08:35:21;6.44;;;6.44;;
73132;SDS011;61320;52.008;4.530;2023-06-22T08:37:48;7.44;;;7.44;;
73132;SDS011;61320;52.008;4.530;2023-06-22T08:40:18;6.02;;;6.02;;
73132;SDS011;61320;52.008;4.530;2023-06-22T08:42:45;4.93;;;4.93;;
73132;SDS011;61320;52.008;4.530;2023-06-22T08:45:11;4.76;;;4.76;;
73132;SDS011;61320;52.008;4.530;2023-06-22T08:47:38;6.52;;;6.52;;
73132;SDS011;61320;52.008;4.530;2023-06-22T08:50:05;6.37;;;6.37;;
73132;SDS011;61320;52.008;4.530;2023-06-22T08:52:31;7.34;;;7.34;;
73132;SDS011;61320;52.008;4.530;2023-06-22T08:54:57;7.91;;;7.91;;
73132;SDS011;61320;52.008;4.530;2023-06-22T08:57:25;8.05;;;8.05;;
73132;SDS011;61320;52.008;4.530;2023-06-22T08:59:52;8.41;;;8.41;;
73132;SDS011;61320;52.008;4.530;2023-06-22T09:02:18;7.88;;;7.88;;
73132;SDS011;61320;52.008;4.530;2023-06-22T09:04:45;10.56;;;10.56;;
73132;SDS011;61320;52.008;4.530;2023-06-22T09:07:11;12.33;;;12.33;;
73132;SDS011;61320;52.008;4.530;2023-06-22T09:09:36;12.14;;;12.14;;
73132;SDS011;61320;52.008;4.530;2023-06-22T09:12:02;9.29;;;9.29;;
73132;SDS011;61320;52.008;4.530;2023-06-22T09:14:28;8.19;;;8.19;;
73132;SDS011;61320;52.008;4.530;2023-06-22T09:16:53;10.18;;;10.18;;
73132;SDS011;61320;52.008;4.530;2023-06-22T09:19:19;11.37;;;11.37;;
73132;SDS011;61320;52.008;4.530;2023-06-22T09:21:44;10.87;;;10.87;;
73132;SDS011;61320;52.008;4.530;2023-06-22T09:24:10;10.20;;;10.20;;
73132;SDS011;61320;52.008;4.530;2023-06-22T09:26:35;9.40;;;9.40;;
73132;SDS011;61320;52.008;4.530;2023-06-22T09:29:00;9.14;;;9.14;;
73132;SDS011;61320;52.008;4.530;2023-06-22T09:31:26;10.04;;;10.04;;
73132;SDS011;61320;52.008;4.530;2023-06-22T09:33:52;11.38;;;11.38;;
73132;SDS011;61320;52.008;4.530;2023-06-22T09:36:19;11.71;;;11.71;;
73132;SDS011;61320;52.008;4.530;2023-06-22T09:38:48;13.13;;;13.13;;
73132;SDS011;61320;52.008;4.530;2023-06-22T09:41:14;12.05;;;12.05;;
73132;SDS011;61320;52.008;4.530;2023-06-22T09:43:39;11.67;;;11.67;;
73132;SDS011;61320;52.008;4.530;2023-06-22T09:46:04;10.91;;;10.91;;
73132;SDS011;61320;52.008;4.530;2023-06-22T09:48:30;10.86;;;10.86;;
73132;SDS011;61320;52.008;4.530;2023-06-22T09:50:56;12.66;;;12.66;;
73132;SDS011;61320;52.008;4.530;2023-06-22T09:53:21;11.98;;;11.98;;
73132;SDS011;61320;52.008;4.530;2023-06-22T09:55:47;11.11;;;11.11;;
73132;SDS011;61320;52.008;4.530;2023-06-22T09:58:12;11.78;;;11.78;;
73132;SDS011;61320;52.008;4.530;2023-06-22T10:00:37;9.56;;;9.56;;
73132;SDS011;61320;52.008;4.530;2023-06-22T10:03:03;8.75;;;8.75;;
73132;SDS011;61320;52.008;4.530;2023-06-22T10:05:28;9.35;;;9.35;;
73132;SDS011;61320;52.008;4.530;2023-06-22T10:07:54;10.02;;;10.02;;
73132;SDS011;61320;52.008;4.530;2023-06-22T10:10:20;11.15;;;11.15;;
73132;SDS011;61320;52.008;4.530;2023-06-22T10:12:46;10.53;;;10.53;;
73132;SDS011;61320;52.008;4.530;2023-06-22T10:15:13;9.73;;;9.73;;
73132;SDS011;61320;52.008;4.530;2023-06-22T10:17:38;9.71;;;9.71;;
73132;SDS011;61320;52.008;4.530;2023-06-22T10:20:05;9.80;;;9.80;;
73132;SDS011;61320;52.008;4.530;2023-06-22T10:22:37;9.62;;;9.62;;
73132;SDS011;61320;52.008;4.530;2023-06-22T10:25:02;8.48;;;8.48;;
73132;SDS011;61320;52.008;4.530;2023-06-22T10:27:27;9.46;;;9.46;;
73132;SDS011;61320;52.008;4.530;2023-06-22T10:29:53;10.55;;;10.55;;
73132;SDS011;61320;52.008;4.530;2023-06-22T10:32:19;11.91;;;11.91;;
73132;SDS011;61320;52.008;4.530;2023-06-22T10:34:44;11.41;;;11.41;;
73132;SDS011;61320;52.008;4.530;2023-06-22T10:37:09;11.06;;;11.06;;
73132;SDS011;61320;52.008;4.530;2023-06-22T10:39:35;12.24;;;12.24;;
73132;SDS011;61320;52.008;4.530;2023-06-22T10:42:00;12.37;;;12.37;;
73132;SDS011;61320;52.008;4.530;2023-06-22T10:44:26;11.63;;;11.63;;
73132;SDS011;61320;52.008;4.530;2023-06-22T10:46:51;11.60;;;11.60;;
73132;SDS011;61320;52.008;4.530;2023-06-22T10:49:16;10.52;;;10.52;;
73132;SDS011;61320;52.008;4.530;2023-06-22T10:51:42;11.93;;;11.93;;
73132;SDS011;61320;52.008;4.530;2023-06-22T10:54:07;11.04;;;11.04;;
73132;SDS011;61320;52.008;4.530;2023-06-22T10:56:32;9.49;;;9.49;;
73132;SDS011;61320;52.008;4.530;2023-06-22T10:58:58;10.26;;;10.26;;
73132;SDS011;61320;52.008;4.530;2023-06-22T11:01:24;9.97;;;9.97;;
73132;SDS011;61320;52.008;4.530;2023-06-22T11:03:49;10.51;;;10.51;;
73132;SDS011;61320;52.008;4.530;2023-06-22T11:06:14;10.15;;;10.15;;
73132;SDS011;61320;52.008;4.530;2023-06-22T11:08:43;9.44;;;9.44;;
73132;SDS011;61320;52.008;4.530;2023-06-22T11:11:08;10.21;;;10.21;;
73132;SDS011;61320;52.008;4.530;2023-06-22T11:13:34;9.66;;;9.66;;
73132;SDS011;61320;52.008;4.530;2023-06-22T11:15:59;9.62;;;9.62;;
73132;SDS011;61320;52.008;4.530;2023-06-22T11:18:24;8.83;;;8.83;;
73132;SDS011;61320;52.008;4.530;2023-06-22T11:20:50;9.68;;;9.68;;
73132;SDS011;61320;52.008;4.530;2023-06-22T11:23:15;9.01;;;9.01;;
73132;SDS011;61320;52.008;4.530;2023-06-22T11:25:41;9.81;;;9.81;;
73132;SDS011;61320;52.008;4.530;2023-06-22T11:28:07;9.69;;;9.69;;
73132;SDS011;61320;52.008;4.530;2023-06-22T11:30:33;9.61;;;9.61;;
73132;SDS011;61320;52.008;4.530;2023-06-22T11:32:59;10.01;;;10.01;;
73132;SDS011;61320;52.008;4.530;2023-06-22T11:35:25;8.98;;;8.98;;
73132;SDS011;61320;52.008;4.530;2023-06-22T11:37:51;8.92;;;8.92;;
73132;SDS011;61320;52.008;4.530;2023-06-22T11:40:16;9.28;;;9.28;;
73132;SDS011;61320;52.008;4.530;2023-06-22T11:42:42;10.31;;;10.31;;
73132;SDS011;61320;52.008;4.530;2023-06-22T11:45:08;10.63;;;10.63;;
73132;SDS011;61320;52.008;4.530;2023-06-22T11:47:34;11.42;;;11.42;;
73132;SDS011;61320;52.008;4.530;2023-06-22T11:50:01;11.66;;;11.66;;
73132;SDS011;61320;52.008;4.530;2023-06-22T11:52:27;12.41;;;12.41;;
73132;SDS011;61320;52.008;4.530;2023-06-22T11:54:53;11.91;;;11.91;;
73132;SDS011;61320;52.008;4.530;2023-06-22T11:57:18;10.50;;;10.50;;
73132;SDS011;61320;52.008;4.530;2023-06-22T11:59:43;11.67;;;11.67;;
73132;SDS011;61320;52.008;4.530;2023-06-22T12:02:09;13.78;;;13.78;;
73132;SDS011;61320;52.008;4.530;2023-06-22T12:04:35;12.71;;;12.71;;
73132;SDS011;61320;52.008;4.530;2023-06-22T12:07:00;14.06;;;14.06;;
73132;SDS011;61320;52.008;4.530;2023-06-22T12:09:26;14.87;;;14.87;;
73132;SDS011;61320;52.008;4.530;2023-06-22T12:11:51;14.48;;;14.48;;
73132;SDS011;61320;52.008;4.530;2023-06-22T12:14:17;14.12;;;14.12;;
73132;SDS011;61320;52.008;4.530;2023-06-22T12:16:42;13.46;;;13.46;;
73132;SDS011;61320;52.008;4.530;2023-06-22T12:19:09;13.11;;;13.11;;
73132;SDS011;61320;52.008;4.530;2023-06-22T12:21:36;13.52;;;13.52;;
73132;SDS011;61320;52.008;4.530;2023-06-22T12:24:02;15.23;;;15.23;;
73132;SDS011;61320;52.008;4.530;2023-06-22T12:26:28;15.26;;;15.26;;
73132;SDS011;61320;52.008;4.530;2023-06-22T12:28:54;17.19;;;17.19;;
73132;SDS011;61320;52.008;4.530;2023-06-22T12:31:19;18.79;;;18.79;;
73132;SDS011;61320;52.008;4.530;2023-06-22T12:33:45;19.29;;;19.29;;
73132;SDS011;61320;52.008;4.530;2023-06-22T12:36:10;20.95;;;20.95;;
73132;SDS011;61320;52.008;4.530;2023-06-22T12:38:36;21.48;;;21.48;;
73132;SDS011;61320;52.008;4.530;2023-06-22T12:41:01;21.64;;;21.64;;
73132;SDS011;61320;52.008;4.530;2023-06-22T12:43:27;20.89;;;20.89;;
73132;SDS011;61320;52.008;4.530;2023-06-22T12:45:53;20.05;;;20.05;;
73132;SDS011;61320;52.008;4.530;2023-06-22T12:48:18;20.07;;;20.07;;
73132;SDS011;61320;52.008;4.530;2023-06-22T12:50:44;19.12;;;19.12;;
73132;SDS011;61320;52.008;4.530;2023-06-22T12:53:09;20.01;;;20.01;;
73132;SDS011;61320;52.008;4.530;2023-06-22T12:55:35;19.18;;;19.18;;
73132;SDS011;61320;52.008;4.530;2023-06-22T12:58:00;19.52;;;19.52;;
73132;SDS011;61320;52.008;4.530;2023-06-22T13:00:26;19.62;;;19.62;;
73132;SDS011;61320;52.008;4.530;2023-06-22T13:02:51;20.58;;;20.58;;
73132;SDS011;61320;52.008;4.530;2023-06-22T13:05:18;20.37;;;20.37;;
73132;SDS011;61320;52.008;4.530;2023-06-22T13:07:44;19.09;;;19.09;;
73132;SDS011;61320;52.008;4.530;2023-06-22T13:10:10;19.58;;;19.58;;
73132;SDS011;61320;52.008;4.530;2023-06-22T13:12:36;18.85;;;18.85;;
73132;SDS011;61320;52.008;4.530;2023-06-22T13:15:01;20.10;;;20.10;;
73132;SDS011;61320;52.008;4.530;2023-06-22T13:17:28;20.94;;;20.94;;
73132;SDS011;61320;52.008;4.530;2023-06-22T13:19:54;21.13;;;21.13;;
73132;SDS011;61320;52.008;4.530;2023-06-22T13:22:29;19.96;;;19.96;;
73132;SDS011;61320;52.008;4.530;2023-06-22T13:24:56;19.49;;;19.49;;
73132;SDS011;61320;52.008;4.530;2023-06-22T13:27:23;20.29;;;20.29;;
73132;SDS011;61320;52.008;4.530;2023-06-22T13:29:49;20.75;;;20.75;;
73132;SDS011;61320;52.008;4.530;2023-06-22T13:32:14;20.96;;;20.96;;
73132;SDS011;61320;52.008;4.530;2023-06-22T13:34:40;19.94;;;19.94;;
73132;SDS011;61320;52.008;4.530;2023-06-22T13:37:05;20.98;;;20.98;;
73132;SDS011;61320;52.008;4.530;2023-06-22T13:39:31;21.51;;;21.51;;
73132;SDS011;61320;52.008;4.530;2023-06-22T13:41:57;21.39;;;21.39;;
73132;SDS011;61320;52.008;4.530;2023-06-22T13:44:23;20.37;;;20.37;;
73132;SDS011;61320;52.008;4.530;2023-06-22T13:46:52;21.41;;;21.41;;
73132;SDS011;61320;52.008;4.530;2023-06-22T13:49:18;21.96;;;21.96;;
73132;SDS011;61320;52.008;4.530;2023-06-22T13:51:44;22.78;;;22.78;;
73132;SDS011;61320;52.008;4.530;2023-06-22T13:54:09;23.28;;;23.28;;
73132;SDS011;61320;52.008;4.530;2023-06-22T13:56:35;22.60;;;22.60;;
73132;SDS011;61320;52.008;4.530;2023-06-22T13:59:00;21.90;;;21.90;;
73132;SDS011;61320;52.008;4.530;2023-06-22T14:01:26;21.27;;;21.27;;
73132;SDS011;61320;52.008;4.530;2023-06-22T14:03:51;22.24;;;22.24;;
73132;SDS011;61320;52.008;4.530;2023-06-22T14:06:17;21.77;;;21.77;;
73132;SDS011;61320;52.008;4.530;2023-06-22T14:08:42;22.34;;;22.34;;
73132;SDS011;61320;52.008;4.530;2023-06-22T14:11:08;23.48;;;23.48;;
73132;SDS011;61320;52.008;4.530;2023-06-22T14:13:33;21.80;;;21.80;;
73132;SDS011;61320;52.008;4.530;2023-06-22T14:16:01;22.13;;;22.13;;
73132;SDS011;61320;52.008;4.530;2023-06-22T14:18:27;21.21;;;21.21;;
73132;SDS011;61320;52.008;4.530;2023-06-22T14:20:52;21.30;;;21.30;;
73132;SDS011;61320;52.008;4.530;2023-06-22T14:23:19;22.06;;;22.06;;
73132;SDS011;61320;52.008;4.530;2023-06-22T14:25:44;21.17;;;21.17;;
73132;SDS011;61320;52.008;4.530;2023-06-22T14:28:10;21.58;;;21.58;;
73132;SDS011;61320;52.008;4.530;2023-06-22T14:30:35;21.47;;;21.47;;